Time;durP1;ratioP1;P1;durP2;ratioP2;P2;SDS_P1;SDS_P2;PMS_P1;PMS_P2;Temp;Humidity;BMP_temperature;BMP_pressure;BME280_temperature;BME280_humidity;BME280_pressure;Samples;Min_cycle;Max_cycle;Signal;HPM_P1;HPM_P2
2022/07/07 00:02:04;;;;;;;9.35;5.68;;;;;;;;;;5033606;28;20124;-73
2022/07/07 00:04:31;;;;;;;7.90;6.18;;;;;;;;;;5033633;28;20495;-73
2022/07/07 00:06:59;;;;;;;6.20;5.15;;;;;;;;;;5033716;28;20132;-74
2022/07/07 00:09:27;;;;;;;8.95;5.35;;;;;;;;;;5033616;28;20042;-73
2022/07/07 00:11:55;;;;;;;7.05;6.18;;;;;;;;;;5033508;28;20526;-73
2022/07/07 00:14:22;;;;;;;10.88;8.35;;;;;;;;;;5033455;28;20048;-73
2022/07/07 00:16:50;;;;;;;9.50;6.38;;;;;;;;;;5032196;28;20236;-73
2022/07/07 00:19:17;;;;;;;8.88;6.35;;;;;;;;;;5033332;28;20072;-73
2022/07/07 00:21:45;;;;;;;8.43;5.50;;;;;;;;;;5033367;28;20589;-73
2022/07/07 00:24:12;;;;;;;9.38;5.57;;;;;;;;;;5033504;28;20048;-73
2022/07/07 00:26:40;;;;;;;12.63;6.70;;;;;;;;;;5033157;28;20037;-73
2022/07/07 00:29:07;;;;;;;7.32;5.93;;;;;;;;;;5033262;28;20038;-73
2022/07/07 00:31:35;;;;;;;8.13;5.80;;;;;;;;;;5031911;28;20045;-73
2022/07/07 00:34:03;;;;;;;10.32;8.57;;;;;;;;;;5033006;28;20045;-73
2022/07/07 00:36:30;;;;;;;7.93;5.40;;;;;;;;;;5031853;28;20045;-73
2022/07/07 00:38:59;;;;;;;9.38;6.40;;;;;;;;;;5033072;28;20072;-73
2022/07/07 00:41:26;;;;;;;11.57;7.95;;;;;;;;;;5032980;28;20522;-73
2022/07/07 00:43:54;;;;;;;12.15;8.52;;;;;;;;;;5031577;28;20507;-73
2022/07/07 00:46:21;;;;;;;7.95;6.03;;;;;;;;;;5033113;28;20402;-73
2022/07/07 00:48:49;;;;;;;9.25;6.00;;;;;;;;;;5032902;28;20038;-73
2022/07/07 00:51:16;;;;;;;9.23;6.13;;;;;;;;;;5032975;28;20041;-73
2022/07/07 00:53:44;;;;;;;7.28;5.97;;;;;;;;;;5031614;28;20052;-73
2022/07/07 00:56:11;;;;;;;10.48;6.70;;;;;;;;;;5031901;28;20053;-73
2022/07/07 00:58:39;;;;;;;7.93;6.35;;;;;;;;;;5032669;28;20505;-73
2022/07/07 01:01:06;;;;;;;8.30;6.90;;;;;;;;;;5031652;28;20042;-73
2022/07/07 01:03:34;;;;;;;7.65;6.28;;;;;;;;;;5032995;28;20103;-73
2022/07/07 01:06:02;;;;;;;10.10;6.60;;;;;;;;;;5032586;28;20431;-73
2022/07/07 01:08:30;;;;;;;10.93;6.78;;;;;;;;;;5032525;28;20072;-73
2022/07/07 01:10:57;;;;;;;11.30;8.65;;;;;;;;;;5032651;28;20049;-72
2022/07/07 01:13:25;;;;;;;10.73;6.40;;;;;;;;;;5032790;28;20069;-73
2022/07/07 01:15:53;;;;;;;7.95;6.18;;;;;;;;;;5032572;28;20037;-73
2022/07/07 01:18:20;;;;;;;10.10;7.63;;;;;;;;;;5032561;28;20067;-73
2022/07/07 01:20:48;;;;;;;9.65;5.95;;;;;;;;;;5032536;28;20096;-73
2022/07/07 01:23:16;;;;;;;9.73;6.22;;;;;;;;;;5032810;28;20045;-73
2022/07/07 01:25:43;;;;;;;10.93;9.70;;;;;;;;;;5032382;28;20045;-73
2022/07/07 01:28:11;;;;;;;9.05;7.47;;;;;;;;;;5032511;28;20045;-73
2022/07/07 01:30:38;;;;;;;9.98;7.03;;;;;;;;;;5032384;28;20037;-72
2022/07/07 01:33:06;;;;;;;15.73;9.30;;;;;;;;;;5032344;28;20073;-73
2022/07/07 01:35:33;;;;;;;9.05;5.97;;;;;;;;;;5032366;28;20103;-72
2022/07/07 01:38:01;;;;;;;8.38;6.30;;;;;;;;;;5032573;28;20052;-73
2022/07/07 01:40:28;;;;;;;9.40;6.18;;;;;;;;;;5032384;28;20041;-72
2022/07/07 01:42:56;;;;;;;9.23;5.68;;;;;;;;;;5032197;28;20458;-73
2022/07/07 01:45:23;;;;;;;8.68;6.03;;;;;;;;;;5032309;28;20041;-72
2022/07/07 01:47:51;;;;;;;9.02;5.50;;;;;;;;;;5032147;28;20053;-72
2022/07/07 01:50:18;;;;;;;7.15;5.97;;;;;;;;;;5032185;28;20390;-72
2022/07/07 01:52:46;;;;;;;7.57;5.60;;;;;;;;;;5032201;28;20096;-73
2022/07/07 01:55:13;;;;;;;9.35;5.90;;;;;;;;;;5032185;28;20506;-72
2022/07/07 01:57:41;;;;;;;10.73;6.63;;;;;;;;;;5064086;28;20041;-72
2022/07/07 02:00:09;;;;;;;7.55;6.32;;;;;;;;;;5032147;28;20057;-72
2022/07/07 02:02:36;;;;;;;9.70;7.35;;;;;;;;;;5032055;28;20438;-73
2022/07/07 02:05:04;;;;;;;9.48;7.47;;;;;;;;;;5032051;28;20495;-73
2022/07/07 02:07:35;;;;;;;7.18;6.00;;;;;;;;;;5031986;28;20041;-72
2022/07/07 02:10:04;;;;;;;8.88;6.30;;;;;;;;;;5031871;28;20046;-73
2022/07/07 02:12:31;;;;;;;11.05;6.00;;;;;;;;;;5034681;28;20407;-72
2022/07/07 02:14:59;;;;;;;11.55;9.07;;;;;;;;;;5034479;28;20073;-72
2022/07/07 02:17:26;;;;;;;8.55;6.82;;;;;;;;;;5035821;28;20057;-73
2022/07/07 02:19:54;;;;;;;10.77;6.03;;;;;;;;;;5035559;28;20095;-73
2022/07/07 02:22:21;;;;;;;12.07;7.88;;;;;;;;;;5035576;28;20057;-74
2022/07/07 02:24:49;;;;;;;8.98;7.32;;;;;;;;;;5035504;28;20049;-73
2022/07/07 02:27:16;;;;;;;12.82;9.13;;;;;;;;;;5035285;28;20053;-72
2022/07/07 02:29:44;;;;;;;10.32;8.57;;;;;;;;;;5035386;28;20438;-72
2022/07/07 02:32:11;;;;;;;9.25;6.32;;;;;;;;;;5035214;28;20041;-72
2022/07/07 02:34:39;;;;;;;7.22;6.07;;;;;;;;;;5035394;28;20045;-72
2022/07/07 02:37:06;;;;;;;34.13;27.48;;;;;;;;;;5035047;28;20522;-72
2022/07/07 02:39:34;;;;;;;11.60;8.35;;;;;;;;;;5035273;28;20037;-72
2022/07/07 02:42:01;;;;;;;18.45;14.90;;;;;;;;;;5035136;28;20041;-72
2022/07/07 02:44:29;;;;;;;13.75;10.35;;;;;;;;;;5035041;28;20057;-72
2022/07/07 02:46:56;;;;;;;11.52;9.65;;;;;;;;;;5034970;28;20491;-72
2022/07/07 02:49:24;;;;;;;21.35;18.35;;;;;;;;;;5035091;28;20492;-72
2022/07/07 02:51:51;;;;;;;9.18;7.20;;;;;;;;;;5035083;28;20076;-72
2022/07/07 02:54:19;;;;;;;11.18;8.00;;;;;;;;;;5034994;28;20045;-72
2022/07/07 02:56:46;;;;;;;23.65;16.95;;;;;;;;;;5033603;28;20053;-72
2022/07/07 02:59:14;;;;;;;11.50;8.88;;;;;;;;;;5034970;28;20447;-72
2022/07/07 03:01:41;;;;;;;22.55;17.77;;;;;;;;;;5034820;28;20049;-72
2022/07/07 03:04:09;;;;;;;27.58;22.88;;;;;;;;;;5034746;28;20113;-72
2022/07/07 03:06:37;;;;;;;8.77;7.80;;;;;;;;;;5034636;28;20034;-72
2022/07/07 03:09:04;;;;;;;19.50;17.13;;;;;;;;;;5035115;28;20053;-73
2022/07/07 03:11:32;;;;;;;7.90;7.10;;;;;;;;;;5035053;28;20417;-73
2022/07/07 03:13:59;;;;;;;22.48;18.73;;;;;;;;;;5034669;28;20041;-72
2022/07/07 03:16:27;;;;;;;29.90;24.00;;;;;;;;;;5034640;28;20061;-73
2022/07/07 03:18:54;;;;;;;11.43;8.07;;;;;;;;;;5033268;28;20059;-73
2022/07/07 03:21:22;;;;;;;14.75;13.13;;;;;;;;;;5034896;28;20372;-73
2022/07/07 03:23:49;;;;;;;8.77;7.90;;;;;;;;;;5033535;28;20037;-73
2022/07/07 03:26:17;;;;;;;14.68;9.75;;;;;;;;;;5034565;28;20041;-73
2022/07/07 03:28:44;;;;;;;11.18;8.75;;;;;;;;;;5034469;28;20038;-73
2022/07/07 03:31:12;;;;;;;12.27;10.50;;;;;;;;;;5034148;28;20067;-73
2022/07/07 03:33:40;;;;;;;9.27;7.93;;;;;;;;;;5034267;28;20065;-73
2022/07/07 03:36:07;;;;;;;11.48;9.50;;;;;;;;;;5034107;28;20432;-73
2022/07/07 03:38:35;;;;;;;11.38;8.77;;;;;;;;;;5034190;28;20065;-73
2022/07/07 03:41:03;;;;;;;10.18;8.40;;;;;;;;;;5034380;28;20080;-74
2022/07/07 03:43:30;;;;;;;12.98;8.10;;;;;;;;;;5033782;28;20124;-73
2022/07/07 03:45:58;;;;;;;12.43;9.45;;;;;;;;;;5032816;28;20466;-73
2022/07/07 03:48:26;;;;;;;13.57;8.63;;;;;;;;;;5033679;28;20067;-73
2022/07/07 03:50:53;;;;;;;10.35;7.68;;;;;;;;;;5034354;28;20041;-73
2022/07/07 03:53:21;;;;;;;11.77;8.20;;;;;;;;;;5033526;28;20069;-74
2022/07/07 03:55:49;;;;;;;12.55;9.18;;;;;;;;;;5033832;28;20045;-72
2022/07/07 03:58:16;;;;;;;8.60;7.68;;;;;;;;;;5033375;28;20099;-74
2022/07/07 04:00:44;;;;;;;11.45;8.13;;;;;;;;;;5033754;28;20380;-74
2022/07/07 04:03:11;;;;;;;10.18;7.47;;;;;;;;;;5033896;28;20048;-74
2022/07/07 04:05:39;;;;;;;13.57;8.82;;;;;;;;;;5034356;28;20060;-74
2022/07/07 04:08:07;;;;;;;15.38;10.35;;;;;;;;;;5033908;28;20454;-74
2022/07/07 04:10:34;;;;;;;16.98;10.85;;;;;;;;;;5033813;28;20049;-73
2022/07/07 04:13:02;;;;;;;22.17;11.32;;;;;;;;;;5032119;28;20575;-74
2022/07/07 04:15:30;;;;;;;11.73;9.25;;;;;;;;;;5033294;28;20041;-73
2022/07/07 04:17:57;;;;;;;10.70;9.23;;;;;;;;;;5033467;28;20049;-72
2022/07/07 04:20:25;;;;;;;15.40;10.13;;;;;;;;;;5033422;28;20376;-73
2022/07/07 04:22:53;;;;;;;14.43;8.80;;;;;;;;;;5032338;28;20472;-72
2022/07/07 04:25:20;;;;;;;11.60;8.25;;;;;;;;;;5032933;28;20045;-72
2022/07/07 04:27:48;;;;;;;14.00;9.27;;;;;;;;;;5032979;28;20129;-73
2022/07/07 04:30:16;;;;;;;12.98;9.60;;;;;;;;;;5031751;28;20045;-73
2022/07/07 04:32:43;;;;;;;15.98;11.45;;;;;;;;;;5033330;28;20053;-73
2022/07/07 04:35:11;;;;;;;17.45;13.45;;;;;;;;;;5031783;28;20407;-72
2022/07/07 04:37:39;;;;;;;15.82;11.20;;;;;;;;;;5032899;28;20046;-72
2022/07/07 04:40:06;;;;;;;13.00;9.88;;;;;;;;;;5031775;28;20073;-72
2022/07/07 04:42:34;;;;;;;23.77;11.88;;;;;;;;;;5031023;28;20045;-73
2022/07/07 04:45:02;;;;;;;20.30;14.85;;;;;;;;;;5031338;28;20480;-73
2022/07/07 04:47:29;;;;;;;19.83;12.63;;;;;;;;;;5031127;28;20034;-73
2022/07/07 04:49:57;;;;;;;17.38;11.82;;;;;;;;;;5031662;28;20449;-73
2022/07/07 04:52:24;;;;;;;14.82;12.98;;;;;;;;;;5032427;28;20495;-73
2022/07/07 04:54:52;;;;;;;14.43;10.15;;;;;;;;;;5032599;28;20065;-73
2022/07/07 04:57:23;;;;;;;13.20;11.50;;;;;;;;;;5032754;28;20120;-73
2022/07/07 04:59:51;;;;;;;14.13;10.88;;;;;;;;;;5032817;28;20407;-73
2022/07/07 05:02:18;;;;;;;12.10;9.50;;;;;;;;;;5032908;28;20050;-73
2022/07/07 05:04:46;;;;;;;13.73;10.60;;;;;;;;;;5031460;28;20124;-72
2022/07/07 05:07:14;;;;;;;14.57;11.15;;;;;;;;;;5040683;28;20030;-72
2022/07/07 05:09:41;;;;;;;14.63;10.40;;;;;;;;;;5042520;28;20036;-73
2022/07/07 05:12:09;;;;;;;13.57;10.00;;;;;;;;;;5035208;28;20037;-73
2022/07/07 05:14:36;;;;;;;11.98;8.82;;;;;;;;;;5032771;28;20040;-73
2022/07/07 05:17:04;;;;;;;13.25;9.45;;;;;;;;;;5032712;28;20048;-72
2022/07/07 05:19:31;;;;;;;10.30;8.93;;;;;;;;;;5032426;28;20037;-72
2022/07/07 05:21:59;;;;;;;11.80;9.30;;;;;;;;;;5032374;28;21139;-73
2022/07/07 05:24:26;;;;;;;10.13;8.30;;;;;;;;;;5032444;28;20041;-72
2022/07/07 05:26:54;;;;;;;18.88;10.23;;;;;;;;;;5032461;28;20487;-73
2022/07/07 05:29:22;;;;;;;12.65;8.32;;;;;;;;;;5032539;28;20052;-64
2022/07/07 05:31:50;;;;;;;15.00;9.88;;;;;;;;;;5032336;28;20041;-65
2022/07/07 05:34:17;;;;;;;12.40;9.98;;;;;;;;;;5032588;28;20044;-64
2022/07/07 05:36:44;;;;;;;11.05;8.15;;;;;;;;;;5032379;28;20038;-64
2022/07/07 05:39:13;;;;;;;8.25;6.38;;;;;;;;;;5032346;28;20112;-64
2022/07/07 05:41:41;;;;;;;7.40;5.60;;;;;;;;;;5032542;28;20434;-64
2022/07/07 05:44:08;;;;;;;11.73;6.22;;;;;;;;;;5032153;28;20123;-64
2022/07/07 05:46:36;;;;;;;10.10;6.00;;;;;;;;;;5033865;28;20510;-64
2022/07/07 05:49:04;;;;;;;6.75;4.28;;;;;;;;;;5036361;28;20052;-64
2022/07/07 05:51:31;;;;;;;7.57;4.18;;;;;;;;;;5036118;28;20038;-65
2022/07/07 05:53:59;;;;;;;6.40;4.10;;;;;;;;;;5036070;28;20128;-65
2022/07/07 05:56:26;;;;;;;7.20;5.47;;;;;;;;;;5036210;28;20051;-64
2022/07/07 05:58:54;;;;;;;7.30;5.18;;;;;;;;;;5034649;28;20419;-64
2022/07/07 06:01:21;;;;;;;6.75;5.28;;;;;;;;;;5035916;28;20041;-64
2022/07/07 06:03:49;;;;;;;6.72;4.85;;;;;;;;;;5036034;28;20451;-64
2022/07/07 06:06:16;;;;;;;10.40;5.25;;;;;;;;;;5035729;28;20038;-64
2022/07/07 06:08:44;;;;;;;7.40;5.28;;;;;;;;;;5035446;28;20549;-64
2022/07/07 06:11:11;;;;;;;8.48;5.97;;;;;;;;;;5035689;28;20045;-64
2022/07/07 06:13:39;;;;;;;6.22;5.03;;;;;;;;;;5035583;28;20041;-64
2022/07/07 06:16:06;;;;;;;6.05;5.30;;;;;;;;;;5035668;28;20049;-64
2022/07/07 06:18:34;;;;;;;7.45;5.60;;;;;;;;;;5047264;28;20479;-64
2022/07/07 06:21:02;;;;;;;6.22;5.40;;;;;;;;;;5050065;28;20108;-64
2022/07/07 06:23:29;;;;;;;9.80;5.50;;;;;;;;;;5055809;28;20063;-64
2022/07/07 06:25:57;;;;;;;7.90;5.78;;;;;;;;;;5055307;28;20041;-64
2022/07/07 06:28:24;;;;;;;7.32;5.50;;;;;;;;;;5055546;28;20033;-61
2022/07/07 06:30:53;;;;;;;6.60;5.72;;;;;;;;;;5055427;28;20103;-61
2022/07/07 06:33:21;;;;;;;8.43;6.60;;;;;;;;;;5055475;28;20045;-61
2022/07/07 06:35:48;;;;;;;8.13;5.72;;;;;;;;;;5055253;28;20457;-61
2022/07/07 06:38:16;;;;;;;7.88;5.20;;;;;;;;;;5055239;28;20045;-61
2022/07/07 06:40:43;;;;;;;8.90;4.85;;;;;;;;;;5055241;28;20552;-63
2022/07/07 06:43:17;;;;;;;5.85;5.25;;;;;;;;;;5054887;28;20045;-61
2022/07/07 06:45:44;;;;;;;8.30;6.15;;;;;;;;;;5055165;28;20087;-60
2022/07/07 06:48:12;;;;;;;7.60;5.53;;;;;;;;;;5055161;28;20049;-67
2022/07/07 06:50:39;;;;;;;5.90;4.90;;;;;;;;;;5054993;28;20057;-68
2022/07/07 06:53:07;;;;;;;8.63;6.43;;;;;;;;;;5055352;28;20420;-66
2022/07/07 06:55:34;;;;;;;9.35;5.47;;;;;;;;;;5055230;28;20091;-67
2022/07/07 06:58:05;;;;;;;6.05;4.80;;;;;;;;;;5052500;28;20540;-66
2022/07/07 07:00:32;;;;;;;5.60;4.53;;;;;;;;;;5054704;28;20120;-66
2022/07/07 07:03:00;;;;;;;6.90;5.18;;;;;;;;;;5054970;28;20063;-66
2022/07/07 07:05:27;;;;;;;5.55;4.50;;;;;;;;;;5053623;28;20045;-66
2022/07/07 07:07:55;;;;;;;6.13;3.72;;;;;;;;;;5054881;28;20037;-68
2022/07/07 07:10:23;;;;;;;5.10;3.58;;;;;;;;;;5054812;28;20120;-67
2022/07/07 07:12:50;;;;;;;5.88;3.83;;;;;;;;;;5054540;28;20087;-66
2022/07/07 07:15:18;;;;;;;6.53;3.22;;;;;;;;;;5054633;28;20445;-66
2022/07/07 07:17:45;;;;;;;4.82;3.50;;;;;;;;;;5054526;28;20037;-67
2022/07/07 07:20:18;;;;;;;8.25;4.20;;;;;;;;;;5054940;28;20052;-68
2022/07/07 07:22:46;;;;;;;5.82;4.32;;;;;;;;;;5054895;28;20414;-67
2022/07/07 07:25:15;;;;;;;3.75;3.30;;;;;;;;;;5054552;28;20124;-67
2022/07/07 07:27:43;;;;;;;7.05;5.22;;;;;;;;;;5054370;28;20045;-66
2022/07/07 07:30:11;;;;;;;4.38;3.22;;;;;;;;;;5054294;28;20041;-67
2022/07/07 07:32:38;;;;;;;4.03;3.10;;;;;;;;;;5054696;28;20048;-67
2022/07/07 07:35:06;;;;;;;3.30;2.70;;;;;;;;;;5054128;28;20571;-67
2022/07/07 07:37:33;;;;;;;3.92;2.80;;;;;;;;;;5054063;28;20041;-67
2022/07/07 07:40:01;;;;;;;3.38;2.10;;;;;;;;;;5054082;28;20060;-67
2022/07/07 07:42:28;;;;;;;2.85;1.73;;;;;;;;;;5053982;28;20037;-66
2022/07/07 07:45:11;;;;;;;2.60;1.80;;;;;;;;;;5054161;28;20115;-67
2022/07/07 07:47:43;;;;;;;5.03;2.63;;;;;;;;;;5054121;28;20048;-66
2022/07/07 07:50:12;;;;;;;2.30;1.75;;;;;;;;;;5054059;28;20048;-67
2022/07/07 07:52:40;;;;;;;3.88;2.95;;;;;;;;;;5054240;28;20049;-67
2022/07/07 07:55:08;;;;;;;1.85;1.52;;;;;;;;;;5053959;28;20422;-67
2022/07/07 07:57:36;;;;;;;3.83;2.45;;;;;;;;;;5053621;28;20071;-67
2022/07/07 08:00:05;;;;;;;4.30;2.00;;;;;;;;;;5053625;28;20047;-67
2022/07/07 08:02:38;;;;;;;1.80;1.70;;;;;;;;;;5053779;28;20132;-67
2022/07/07 08:05:06;;;;;;;3.75;2.50;;;;;;;;;;5053772;28;20127;-67
2022/07/07 08:07:34;;;;;;;4.55;3.33;;;;;;;;;;5053954;28;20090;-67
2022/07/07 08:10:01;;;;;;;3.53;2.40;;;;;;;;;;5053309;28;20049;-67
2022/07/07 08:12:29;;;;;;;3.33;2.22;;;;;;;;;;5053467;28;20049;-67
2022/07/07 08:14:56;;;;;;;2.85;1.50;;;;;;;;;;5053310;28;20538;-67
2022/07/07 08:17:24;;;;;;;3.70;2.60;;;;;;;;;;5053601;28;20379;-67
2022/07/07 08:19:51;;;;;;;2.42;1.90;;;;;;;;;;5053301;28;20075;-67
2022/07/07 08:22:19;;;;;;;3.47;2.70;;;;;;;;;;5053174;28;20041;-67
2022/07/07 08:24:46;;;;;;;4.43;2.60;;;;;;;;;;5053122;28;20064;-67
2022/07/07 08:27:14;;;;;;;9.13;8.15;;;;;;;;;;5053125;28;20040;-67
2022/07/07 08:29:42;;;;;;;3.00;2.70;;;;;;;;;;5053434;28;20449;-67
2022/07/07 08:32:16;;;;;;;3.10;2.00;;;;;;;;;;5053092;28;20080;-67
2022/07/07 08:34:44;;;;;;;2.35;2.15;;;;;;;;;;5053103;28;20051;-67
2022/07/07 08:37:12;;;;;;;2.83;1.92;;;;;;;;;;5052973;28;20072;-67
2022/07/07 08:39:39;;;;;;;2.42;2.20;;;;;;;;;;5053061;28;20052;-67
2022/07/07 08:42:08;;;;;;;2.95;2.28;;;;;;;;;;5052920;28;20045;-67
2022/07/07 08:44:36;;;;;;;3.38;2.50;;;;;;;;;;5051488;28;20518;-67
2022/07/07 08:47:04;;;;;;;2.65;2.20;;;;;;;;;;5053208;28;20048;-67
2022/07/07 08:49:32;;;;;;;2.30;1.90;;;;;;;;;;5052928;28;20119;-67
2022/07/07 08:52:00;;;;;;;2.30;2.10;;;;;;;;;;5052881;28;20037;-67
2022/07/07 08:54:27;;;;;;;3.78;2.70;;;;;;;;;;5052982;28;20447;-67
2022/07/07 08:56:55;;;;;;;2.47;1.95;;;;;;;;;;5052881;28;20083;-67
2022/07/07 08:59:24;;;;;;;2.55;1.88;;;;;;;;;;5052917;28;20072;-67
2022/07/07 09:02:01;;;;;;;3.75;1.90;;;;;;;;;;5052580;28;20394;-66
2022/07/07 09:04:29;;;;;;;2.95;2.30;;;;;;;;;;5051357;28;20072;-67
2022/07/07 09:06:58;;;;;;;5.05;2.47;;;;;;;;;;5052367;28;20037;-66
2022/07/07 09:09:29;;;;;;;3.25;2.20;;;;;;;;;;5052234;28;20121;-67
2022/07/07 09:12:00;;;;;;;3.38;3.00;;;;;;;;;;5052461;28;20037;-67
2022/07/07 09:14:44;;;;;;;8.15;6.28;;;;;;;;;;5052574;28;20059;-67
2022/07/07 09:17:19;;;;;;;2.10;1.90;;;;;;;;;;5052549;28;20123;-67
2022/07/07 09:19:58;;;;;;;2.88;2.10;;;;;;;;;;5052479;28;20053;-66
2022/07/07 09:22:46;;;;;;;4.18;2.90;;;;;;;;;;5051826;28;20040;-67
2022/07/07 09:25:15;;;;;;;4.88;4.05;;;;;;;;;;5052558;28;20068;-67
2022/07/07 09:27:58;;;;;;;3.30;2.00;;;;;;;;;;5052511;28;20037;-67
2022/07/07 09:30:36;;;;;;;3.05;2.60;;;;;;;;;;5052564;28;20473;-67
2022/07/07 09:33:07;;;;;;;2.22;1.60;;;;;;;;;;5052407;28;20494;-67
2022/07/07 09:38:22;;;;;;;2.08;1.90;;;;;;;;;;5052224;28;20139;-66
2022/07/07 09:41:03;;;;;;;1.92;1.60;;;;;;;;;;5052302;28;20079;-66
2022/07/07 09:43:32;;;;;;;4.38;2.00;;;;;;;;;;5052281;28;20056;-66
2022/07/07 09:46:13;;;;;;;1.70;1.60;;;;;;;;;;5052318;28;20041;-66
2022/07/07 09:48:48;;;;;;;2.45;2.15;;;;;;;;;;5051019;28;20123;-65
2022/07/07 09:51:17;;;;;;;3.45;1.73;;;;;;;;;;5052626;28;20044;-66
2022/07/07 09:54:03;;;;;;;3.80;2.38;;;;;;;;;;5052271;28;20052;-65
2022/07/07 09:56:33;;;;;;;2.08;1.88;;;;;;;;;;5052068;28;20119;-65
2022/07/07 09:59:02;;;;;;;3.20;1.98;;;;;;;;;;5051823;28;20044;-65
2022/07/07 10:01:30;;;;;;;3.05;1.95;;;;;;;;;;5052024;28;20045;-66
2022/07/07 10:04:08;;;;;;;3.22;2.80;;;;;;;;;;5052145;28;20049;-65
2022/07/07 10:06:37;;;;;;;3.45;3.05;;;;;;;;;;5052133;28;20047;-66
2022/07/07 10:09:06;;;;;;;3.33;2.90;;;;;;;;;;5052107;28;20069;-65
2022/07/07 10:11:38;;;;;;;1.92;1.83;;;;;;;;;;5052067;28;20077;-66
2022/07/07 10:14:10;;;;;;;2.95;2.67;;;;;;;;;;5052358;28;20051;-67
2022/07/07 10:16:38;;;;;;;6.00;4.88;;;;;;;;;;5051993;28;20384;-65
2022/07/07 10:19:07;;;;;;;14.43;12.63;;;;;;;;;;5051955;28;20538;-65
2022/07/07 10:21:35;;;;;;;8.80;6.55;;;;;;;;;;5051812;28;20099;-65
2022/07/07 10:24:06;;;;;;;3.38;2.70;;;;;;;;;;5051840;28;20040;-65
2022/07/07 10:26:38;;;;;;;2.83;2.47;;;;;;;;;;5052118;28;20379;-67
2022/07/07 10:29:06;;;;;;;2.25;2.00;;;;;;;;;;5051934;28;20049;-65
2022/07/07 10:31:34;;;;;;;2.05;1.80;;;;;;;;;;5050533;28;20052;-66
2022/07/07 10:34:04;;;;;;;2.92;1.95;;;;;;;;;;5055223;28;20037;-66
2022/07/07 10:37:04;;;;;;;1.73;1.63;;;;;;;;;;5055576;28;20037;-65
2022/07/07 10:39:33;;;;;;;3.67;2.30;;;;;;;;;;5043376;28;20049;-65
2022/07/07 10:42:07;;;;;;;2.08;1.83;;;;;;;;;;5055287;28;20044;-65
2022/07/07 10:44:36;;;;;;;1.90;1.80;;;;;;;;;;5055100;28;20048;-66
2022/07/07 10:47:03;;;;;;;2.30;1.80;;;;;;;;;;5055138;28;20044;-65
2022/07/07 10:49:44;;;;;;;2.25;1.85;;;;;;;;;;5055200;28;20033;-66
2022/07/07 10:52:19;;;;;;;1.60;1.50;;;;;;;;;;5055004;28;20501;-65
2022/07/07 10:54:54;;;;;;;3.00;1.77;;;;;;;;;;5054837;28;20045;-66
2022/07/07 10:57:23;;;;;;;1.80;1.70;;;;;;;;;;5054803;28;20041;-66
2022/07/07 11:00:07;;;;;;;1.65;1.55;;;;;;;;;;5054691;28;20071;-66
2022/07/07 11:02:47;;;;;;;2.90;1.83;;;;;;;;;;5054768;28;20486;-66
2022/07/07 11:05:14;;;;;;;2.10;1.90;;;;;;;;;;5055133;28;20056;-66
2022/07/07 11:07:43;;;;;;;2.25;1.95;;;;;;;;;;5055863;28;20045;-66
2022/07/07 11:10:11;;;;;;;1.70;1.60;;;;;;;;;;5054877;28;20041;-66
2022/07/07 11:12:42;;;;;;;3.10;1.85;;;;;;;;;;5053509;28;20520;-66
2022/07/07 11:15:16;;;;;;;2.95;2.20;;;;;;;;;;5054790;28;20558;-66
2022/07/07 11:17:43;;;;;;;2.92;1.92;;;;;;;;;;5054695;28;20045;-66
2022/07/07 11:20:15;;;;;;;4.28;2.08;;;;;;;;;;5054564;28;20045;-65
2022/07/07 11:22:50;;;;;;;3.63;2.45;;;;;;;;;;5054499;28;20112;-65
2022/07/07 11:25:19;;;;;;;3.40;2.10;;;;;;;;;;5054795;28;20121;-67
2022/07/07 11:27:48;;;;;;;2.70;2.20;;;;;;;;;;5054600;28;20041;-67
2022/07/07 11:30:16;;;;;;;3.30;2.72;;;;;;;;;;5054688;28;20041;-67
2022/07/07 11:32:44;;;;;;;2.10;1.90;;;;;;;;;;5054303;28;20065;-66
2022/07/07 11:35:12;;;;;;;3.05;2.70;;;;;;;;;;5054202;28;20487;-66
2022/07/07 11:37:42;;;;;;;5.15;3.40;;;;;;;;;;5054399;28;20075;-66
2022/07/07 11:40:16;;;;;;;3.70;2.10;;;;;;;;;;5054045;28;20045;-66
2022/07/07 11:42:44;;;;;;;2.63;1.80;;;;;;;;;;5053971;28;20059;-66
2022/07/07 11:45:18;;;;;;;2.92;2.10;;;;;;;;;;5053318;28;20079;-66
2022/07/07 11:47:46;;;;;;;2.22;2.00;;;;;;;;;;5054061;28;20053;-66
2022/07/07 11:50:14;;;;;;;1.83;1.73;;;;;;;;;;5054019;28;20491;-66
2022/07/07 11:52:55;;;;;;;2.13;1.85;;;;;;;;;;5052725;28;20140;-66
2022/07/07 11:55:23;;;;;;;4.22;2.50;;;;;;;;;;5054055;28;20055;-66
2022/07/07 11:57:52;;;;;;;1.83;1.73;;;;;;;;;;5053736;28;20029;-66
2022/07/07 12:00:20;;;;;;;1.85;1.70;;;;;;;;;;5053637;28;20103;-66
2022/07/07 12:02:49;;;;;;;1.73;1.63;;;;;;;;;;5053940;28;20037;-66
2022/07/07 12:05:18;;;;;;;3.42;1.88;;;;;;;;;;5053651;28;20076;-66
2022/07/07 12:08:05;;;;;;;10.32;6.85;;;;;;;;;;5053704;28;20041;-66
2022/07/07 12:10:35;;;;;;;6.45;4.30;;;;;;;;;;5053532;28;20037;-66
2022/07/07 12:13:05;;;;;;;2.80;1.88;;;;;;;;;;5053516;28;20087;-66
2022/07/07 12:15:43;;;;;;;2.13;1.90;;;;;;;;;;5053443;28;20045;-66
2022/07/07 12:18:11;;;;;;;5.32;3.33;;;;;;;;;;5053515;28;20037;-67
2022/07/07 12:20:40;;;;;;;3.95;2.50;;;;;;;;;;5053670;28;20431;-66
2022/07/07 12:23:09;;;;;;;2.22;2.00;;;;;;;;;;5053430;28;20116;-66
2022/07/07 12:25:37;;;;;;;2.10;1.90;;;;;;;;;;5053287;28;20041;-66
2022/07/07 12:28:10;;;;;;;3.22;2.40;;;;;;;;;;5053258;28;20449;-66
2022/07/07 12:30:50;;;;;;;2.55;1.70;;;;;;;;;;5053377;28;20037;-67
2022/07/07 12:33:36;;;;;;;3.38;2.28;;;;;;;;;;5051916;28;20076;-66
2022/07/07 12:36:27;;;;;;;2.67;1.85;;;;;;;;;;5053256;28;20077;-66
2022/07/07 12:38:56;;;;;;;2.88;1.83;;;;;;;;;;5050225;28;20080;-66
2022/07/07 12:41:25;;;;;;;2.60;2.10;;;;;;;;;;5053077;28;20383;-66
2022/07/07 12:44:13;;;;;;;2.30;2.10;;;;;;;;;;5052884;28;20057;-66
2022/07/07 12:46:41;;;;;;;2.10;2.00;;;;;;;;;;5052998;28;20037;-66
2022/07/07 12:49:09;;;;;;;2.40;2.10;;;;;;;;;;5052944;28;20403;-66
2022/07/07 12:51:37;;;;;;;2.42;2.22;;;;;;;;;;5053198;28;20395;-66
2022/07/07 12:54:05;;;;;;;3.67;2.28;;;;;;;;;;5052930;28;20044;-66
2022/07/07 12:56:34;;;;;;;2.78;2.58;;;;;;;;;;5052723;28;20114;-66
2022/07/07 12:59:02;;;;;;;3.40;2.10;;;;;;;;;;5052664;28;20517;-66
2022/07/07 13:01:30;;;;;;;2.45;2.25;;;;;;;;;;5052771;28;20079;-66
2022/07/07 13:03:58;;;;;;;3.75;2.70;;;;;;;;;;5052996;28;20041;-66
2022/07/07 13:06:25;;;;;;;3.75;2.60;;;;;;;;;;5052632;28;20570;-66
2022/07/07 13:08:54;;;;;;;3.08;2.47;;;;;;;;;;5052609;28;20116;-66
2022/07/07 13:11:42;;;;;;;4.80;3.25;;;;;;;;;;5052633;28;20395;-66
2022/07/07 13:14:09;;;;;;;3.22;2.80;;;;;;;;;;5052654;28;20041;-66
2022/07/07 13:16:53;;;;;;;4.68;3.40;;;;;;;;;;5052619;28;20044;-66
2022/07/07 13:19:21;;;;;;;5.10;3.17;;;;;;;;;;5052461;28;20483;-66
2022/07/07 13:21:49;;;;;;;7.40;4.55;;;;;;;;;;5052502;28;20107;-66
2022/07/07 13:24:16;;;;;;;4.10;2.95;;;;;;;;;;5052472;28;20044;-66
2022/07/07 13:26:44;;;;;;;6.20;4.35;;;;;;;;;;5052556;28;20069;-66
2022/07/07 13:29:11;;;;;;;4.30;3.47;;;;;;;;;;5052456;28;20041;-66
2022/07/07 13:31:41;;;;;;;5.10;3.65;;;;;;;;;;5046927;28;20041;-66
2022/07/07 13:34:09;;;;;;;4.55;2.60;;;;;;;;;;5031531;28;20038;-66
2022/07/07 13:36:37;;;;;;;4.30;3.25;;;;;;;;;;5031820;28;20045;-66
2022/07/07 13:39:05;;;;;;;3.90;2.90;;;;;;;;;;5031726;28;20447;-67
2022/07/07 13:41:32;;;;;;;7.15;4.35;;;;;;;;;;5031988;28;20045;-67
2022/07/07 13:44:02;;;;;;;5.43;3.60;;;;;;;;;;5031495;28;20038;-67
2022/07/07 13:46:30;;;;;;;2.92;2.63;;;;;;;;;;5031644;28;20055;-66
2022/07/07 13:48:58;;;;;;;5.35;3.22;;;;;;;;;;5030333;28;20041;-66
2022/07/07 13:51:25;;;;;;;3.42;3.00;;;;;;;;;;5030568;28;20057;-66
2022/07/07 13:53:53;;;;;;;3.83;3.15;;;;;;;;;;5028453;28;20042;-66
2022/07/07 13:56:40;;;;;;;5.68;5.00;;;;;;;;;;5031505;28;20056;-66
2022/07/07 13:59:08;;;;;;;3.78;3.28;;;;;;;;;;5031640;28;20038;-66
2022/07/07 14:01:35;;;;;;;3.80;3.20;;;;;;;;;;5031429;28;20053;-65
2022/07/07 14:04:03;;;;;;;4.93;3.20;;;;;;;;;;5031705;28;20060;-66
2022/07/07 14:06:30;;;;;;;4.07;3.67;;;;;;;;;;5031682;28;20047;-67
2022/07/07 14:08:58;;;;;;;3.08;2.88;;;;;;;;;;5035239;28;20103;-67
2022/07/07 14:11:25;;;;;;;3.03;2.80;;;;;;;;;;5035584;28;20037;-67
2022/07/07 14:13:53;;;;;;;4.80;3.28;;;;;;;;;;5035441;28;20041;-66
2022/07/07 14:16:28;;;;;;;3.40;3.00;;;;;;;;;;5035570;28;20041;-67
2022/07/07 14:18:55;;;;;;;3.58;3.00;;;;;;;;;;5029616;28;20488;-67
2022/07/07 14:21:23;;;;;;;3.55;2.75;;;;;;;;;;5017641;28;20050;-68
2022/07/07 14:23:51;;;;;;;3.40;2.92;;;;;;;;;;5030603;28;20087;-67
2022/07/07 14:26:18;;;;;;;5.57;3.00;;;;;;;;;;5035476;28;20454;-68
2022/07/07 14:28:46;;;;;;;3.78;3.33;;;;;;;;;;5035348;28;20388;-67
2022/07/07 14:31:14;;;;;;;3.97;2.80;;;;;;;;;;5034360;28;20043;-67
2022/07/07 14:33:41;;;;;;;5.43;3.30;;;;;;;;;;5034342;28;20041;-68
2022/07/07 14:36:09;;;;;;;6.25;4.00;;;;;;;;;;5034674;28;20080;-68
2022/07/07 14:38:37;;;;;;;3.22;2.92;;;;;;;;;;5034753;28;20045;-68
2022/07/07 14:41:04;;;;;;;3.40;3.10;;;;;;;;;;5034996;28;20438;-68
2022/07/07 14:43:32;;;;;;;5.18;3.67;;;;;;;;;;5034709;28;20060;-67
2022/07/07 14:45:59;;;;;;;5.38;3.45;;;;;;;;;;5035058;28;20049;-68
2022/07/07 14:48:29;;;;;;;4.07;3.20;;;;;;;;;;5034891;28;20044;-68
2022/07/07 14:50:59;;;;;;;4.35;3.28;;;;;;;;;;5034820;28;20100;-68
2022/07/07 14:53:30;;;;;;;4.88;3.30;;;;;;;;;;5034787;28;20037;-68